Saint-Georges-De-Cacouna, Canada
Current Conditions -  °F | °C
As of 11:53 AM on Thursday 23 Oct 2014 (Local Time) from KFVE Reporting Station
Overcast Overcast  
Wind Chill: 36°   Ceiling: 1600
Heat Index: 42°   Visibility: 10mi
Dew Point: 35°   Wind: 10mph
Humidity: 76%   Direction: 40°NE
Pressure: 30.16"   Gusts: 22mph
Location:  47.92°N, 69.5°W
Report Text: KFVE 231553Z AUTO 04009G19KT 10SM BKN016 OVC085 06/02 A3016 RMK AO2 SLP221 T00560017
Loading
Personal Weather Stations






























Interactive Weather Map
Tropical Storm Tracking
New forecast layout! Learn more

10-Day Weather Forecast

Advertisements
Track Severe Weather on mobile